Time;durP1;ratioP1;P1;durP2;ratioP2;P2;SDS_P1;SDS_P2;PMS_P1;PMS_P2;Temp;Humidity;BMP_temperature;BMP_pressure;BME280_temperature;BME280_humidity;BME280_pressure;Samples;Min_cycle;Max_cycle;Signal;HPM_P1;HPM_P2
2022/05/02 00:00:31;;;;;;;1999.90;999.90;;;;;;;;;;5047029;28;20857;-68
2022/05/02 00:02:59;;;;;;;1999.90;999.90;;;;;;;;;;5057521;28;20411;-67
2022/05/02 00:05:27;;;;;;;1999.90;999.90;;;;;;;;;;5057898;28;20747;-67
2022/05/02 00:07:56;;;;;;;1999.90;999.90;;;;;;;;;;5090372;27;20871;-68
2022/05/02 00:10:24;;;;;;;1999.90;999.90;;;;;;;;;;5088363;27;20944;-67
2022/05/02 00:12:52;;;;;;;1999.90;999.90;;;;;;;;;;5074106;27;20386;-67
2022/05/02 00:15:19;;;;;;;1999.90;999.90;;;;;;;;;;5058063;28;20828;-67
2022/05/02 00:17:59;;;;;;;1999.90;999.90;;;;;;;;;;5061843;28;20458;-66
2022/05/02 00:20:28;;;;;;;1999.90;999.90;;;;;;;;;;5070726;28;20529;-66
2022/05/02 00:22:57;;;;;;;1999.90;999.90;;;;;;;;;;5068029;28;20404;-67
2022/05/02 00:25:25;;;;;;;1999.90;999.90;;;;;;;;;;5068000;28;20856;-66
2022/05/02 00:27:53;;;;;;;1999.90;999.90;;;;;;;;;;5058391;28;20910;-67
2022/05/02 00:30:21;;;;;;;1999.90;999.90;;;;;;;;;;5061083;28;20394;-68
2022/05/02 00:32:49;;;;;;;1999.90;999.90;;;;;;;;;;5059413;28;20398;-67
2022/05/02 00:35:16;;;;;;;1999.90;999.90;;;;;;;;;;5060971;28;20431;-67
2022/05/02 00:37:45;;;;;;;1999.90;999.90;;;;;;;;;;5063172;28;20415;-67
2022/05/02 00:40:14;;;;;;;1999.90;999.90;;;;;;;;;;5089693;27;20386;-68
2022/05/02 00:42:43;;;;;;;1999.90;999.90;;;;;;;;;;5090634;27;20649;-68
2022/05/02 00:45:11;;;;;;;1999.90;999.90;;;;;;;;;;5091726;27;20434;-67
2022/05/02 00:47:39;;;;;;;1999.90;999.90;;;;;;;;;;5056668;28;20426;-72
2022/05/02 00:50:07;;;;;;;1999.90;999.90;;;;;;;;;;5060393;28;20406;-72
2022/05/02 00:52:37;;;;;;;1999.90;999.90;;;;;;;;;;5062485;28;20378;-72
2022/05/02 00:55:05;;;;;;;1999.90;999.90;;;;;;;;;;5059975;28;20873;-69
2022/05/02 00:57:34;;;;;;;1999.90;999.90;;;;;;;;;;5061612;28;20540;-69
2022/05/02 01:00:02;;;;;;;1999.90;999.90;;;;;;;;;;5090150;27;20489;-71
2022/05/02 01:02:30;;;;;;;1999.90;999.90;;;;;;;;;;5062282;28;20956;-73
2022/05/02 01:04:57;;;;;;;1999.90;999.90;;;;;;;;;;5058936;28;20406;-71
2022/05/02 01:07:24;;;;;;;1999.90;999.90;;;;;;;;;;5060372;28;20403;-69
2022/05/02 01:09:52;;;;;;;1999.90;999.90;;;;;;;;;;5061430;28;20410;-71
2022/05/02 01:12:21;;;;;;;1999.90;999.90;;;;;;;;;;5043364;28;20472;-71
2022/05/02 01:14:51;;;;;;;1999.90;999.90;;;;;;;;;;5059440;28;20570;-73
2022/05/02 01:17:18;;;;;;;1999.90;999.90;;;;;;;;;;5089779;27;20388;-72
2022/05/02 01:19:46;;;;;;;1999.90;999.90;;;;;;;;;;5066941;28;20407;-73
2022/05/02 01:22:15;;;;;;;1999.90;999.90;;;;;;;;;;5063356;28;20775;-70
2022/05/02 01:24:44;;;;;;;1999.90;999.90;;;;;;;;;;5080612;22;20934;-72
2022/05/02 01:27:13;;;;;;;1999.90;999.90;;;;;;;;;;5013641;28;21010;-73
2022/05/02 01:29:42;;;;;;;1999.90;999.90;;;;;;;;;;5014462;28;20498;-72
2022/05/02 01:32:10;;;;;;;1999.90;999.90;;;;;;;;;;5017134;28;20401;-72
2022/05/02 01:34:40;;;;;;;1999.90;999.90;;;;;;;;;;5013776;28;20426;-72
2022/05/02 01:37:08;;;;;;;1999.90;999.90;;;;;;;;;;5015664;28;20378;-71
2022/05/02 01:39:37;;;;;;;1999.90;999.90;;;;;;;;;;5015869;28;20400;-71
2022/05/02 01:42:06;;;;;;;1999.90;999.90;;;;;;;;;;5008182;28;20401;-72
2022/05/02 01:44:34;;;;;;;1999.90;999.90;;;;;;;;;;5009507;28;21012;-73
2022/05/02 01:47:01;;;;;;;1999.90;999.90;;;;;;;;;;5008910;28;20401;-73
2022/05/02 01:49:29;;;;;;;1999.90;999.90;;;;;;;;;;5010438;28;20398;-72
2022/05/02 01:51:57;;;;;;;1999.90;999.90;;;;;;;;;;5016826;28;20835;-71
2022/05/02 01:54:25;;;;;;;1999.90;999.90;;;;;;;;;;5015126;28;21810;-70
2022/05/02 01:56:55;;;;;;;1999.90;999.90;;;;;;;;;;5014714;28;20445;-72
2022/05/02 01:59:23;;;;;;;1999.90;999.90;;;;;;;;;;5015935;28;20398;-71
2022/05/02 02:01:51;;;;;;;1999.90;999.90;;;;;;;;;;5013340;28;20424;-72
2022/05/02 02:07:04;;;;;;;1999.90;999.90;;;;;;;;;;5025783;28;20900;-73
2022/05/02 02:09:33;;;;;;;1999.90;999.90;;;;;;;;;;5014068;28;20492;-71
2022/05/02 02:12:02;;;;;;;1999.90;999.90;;;;;;;;;;5014056;28;20398;-71
2022/05/02 02:14:29;;;;;;;1999.90;999.90;;;;;;;;;;5011462;28;20521;-72
2022/05/02 02:16:57;;;;;;;1999.90;999.90;;;;;;;;;;5014360;28;21176;-73
2022/05/02 02:19:25;;;;;;;1999.90;999.90;;;;;;;;;;5013638;28;20456;-72
2022/05/02 02:21:52;;;;;;;1999.90;999.90;;;;;;;;;;5013679;28;20418;-71
2022/05/02 02:24:20;;;;;;;1999.90;999.90;;;;;;;;;;5011770;28;21352;-71
2022/05/02 02:26:47;;;;;;;1999.90;999.90;;;;;;;;;;5030362;28;20452;-72
2022/05/02 02:29:16;;;;;;;1999.90;999.90;;;;;;;;;;5014229;28;21044;-71
2022/05/02 02:31:44;;;;;;;1999.90;999.90;;;;;;;;;;5016184;28;20637;-70
2022/05/02 02:34:11;;;;;;;1999.90;999.90;;;;;;;;;;5012786;28;20408;-71
2022/05/02 02:36:41;;;;;;;1999.90;999.90;;;;;;;;;;5012681;28;21027;-70
2022/05/02 02:39:09;;;;;;;1999.90;999.90;;;;;;;;;;5013010;28;20485;-72
2022/05/02 02:41:36;;;;;;;1999.90;999.90;;;;;;;;;;5013625;28;20398;-71
2022/05/02 02:44:04;;;;;;;1999.90;999.90;;;;;;;;;;5012720;28;20457;-71
2022/05/02 02:46:33;;;;;;;1999.90;999.90;;;;;;;;;;5007796;28;20423;-72
2022/05/02 02:49:00;;;;;;;1999.90;999.90;;;;;;;;;;4999809;28;20398;-72
2022/05/02 02:51:28;;;;;;;1999.90;999.90;;;;;;;;;;5015515;28;20466;-71
2022/05/02 02:53:56;;;;;;;1999.90;999.90;;;;;;;;;;5011567;28;20916;-70
2022/05/02 02:56:23;;;;;;;1999.90;999.90;;;;;;;;;;5014092;28;20797;-71
2022/05/02 02:58:51;;;;;;;1999.90;999.90;;;;;;;;;;5014283;28;20476;-71
2022/05/02 03:01:19;;;;;;;1999.90;999.90;;;;;;;;;;5014312;28;20401;-71
2022/05/02 03:03:48;;;;;;;1999.90;999.90;;;;;;;;;;5014325;28;20530;-70
2022/05/02 03:06:15;;;;;;;1999.90;999.90;;;;;;;;;;5011917;28;20410;-72
2022/05/02 03:08:44;;;;;;;1999.90;999.90;;;;;;;;;;5014472;28;20425;-72
2022/05/02 03:11:12;;;;;;;1999.90;999.90;;;;;;;;;;5011755;28;20900;-71
2022/05/02 03:13:39;;;;;;;1999.90;999.90;;;;;;;;;;5014583;28;20417;-71
2022/05/02 03:16:07;;;;;;;1999.90;999.90;;;;;;;;;;5008900;28;20421;-71
2022/05/02 03:18:35;;;;;;;1999.90;999.90;;;;;;;;;;5014445;28;21288;-72
2022/05/02 03:21:04;;;;;;;1999.90;999.90;;;;;;;;;;5014315;28;20410;-71
2022/05/02 03:23:31;;;;;;;1999.90;999.90;;;;;;;;;;5014249;28;20421;-72
2022/05/02 03:25:59;;;;;;;1999.90;999.90;;;;;;;;;;5013959;28;20402;-71
2022/05/02 03:28:27;;;;;;;1999.90;999.90;;;;;;;;;;5015056;28;20425;-71
2022/05/02 03:30:54;;;;;;;1999.90;999.90;;;;;;;;;;5013282;28;20959;-72
2022/05/02 03:33:22;;;;;;;1999.90;999.90;;;;;;;;;;5012777;28;20418;-72
2022/05/02 03:35:49;;;;;;;1999.90;999.90;;;;;;;;;;5014290;28;20520;-71
2022/05/02 03:38:18;;;;;;;1999.90;999.90;;;;;;;;;;5015114;28;20873;-71
2022/05/02 03:40:46;;;;;;;1999.90;999.90;;;;;;;;;;5016025;28;21007;-72
2022/05/02 03:43:14;;;;;;;1999.90;999.90;;;;;;;;;;5012958;28;20434;-72
2022/05/02 03:45:41;;;;;;;1999.90;999.90;;;;;;;;;;5013662;28;20396;-72
2022/05/02 03:48:09;;;;;;;1999.90;999.90;;;;;;;;;;5013599;28;20410;-72
2022/05/02 03:50:36;;;;;;;1999.90;999.90;;;;;;;;;;5011938;28;20497;-71
2022/05/02 03:53:04;;;;;;;1999.90;999.90;;;;;;;;;;5015413;28;20918;-74
2022/05/02 03:55:33;;;;;;;1999.90;999.90;;;;;;;;;;5012461;28;20424;-74
2022/05/02 03:58:02;;;;;;;1999.90;999.90;;;;;;;;;;5010175;28;20450;-72
2022/05/02 04:00:32;;;;;;;1999.90;999.90;;;;;;;;;;5012013;28;20421;-78
2022/05/02 04:03:00;;;;;;;1999.90;999.90;;;;;;;;;;5012468;28;20406;-72
2022/05/02 04:05:27;;;;;;;1999.90;999.90;;;;;;;;;;5011672;28;20501;-72
2022/05/02 04:07:55;;;;;;;1999.90;999.90;;;;;;;;;;5008595;28;20391;-73
2022/05/02 04:10:23;;;;;;;1999.90;999.90;;;;;;;;;;5013115;28;20398;-73
2022/05/02 04:12:52;;;;;;;1999.90;999.90;;;;;;;;;;5013901;28;20942;-73
2022/05/02 04:15:19;;;;;;;1999.90;999.90;;;;;;;;;;5029573;28;20507;-73
2022/05/02 04:17:47;;;;;;;1999.90;999.90;;;;;;;;;;5011245;28;20551;-74
2022/05/02 04:20:15;;;;;;;1999.90;999.90;;;;;;;;;;5010520;28;20410;-73
2022/05/02 04:22:42;;;;;;;1999.90;999.90;;;;;;;;;;5009649;28;21369;-73
2022/05/02 04:25:10;;;;;;;1999.90;999.90;;;;;;;;;;5014048;28;21682;-74
2022/05/02 04:27:37;;;;;;;1999.90;999.90;;;;;;;;;;5011818;28;21608;-73
2022/05/02 04:30:07;;;;;;;1999.90;999.90;;;;;;;;;;5006447;28;20525;-72
2022/05/02 04:32:35;;;;;;;1999.90;999.90;;;;;;;;;;4998088;28;20532;-72
2022/05/02 04:35:03;;;;;;;1999.90;999.90;;;;;;;;;;5013712;28;20540;-73
2022/05/02 04:37:30;;;;;;;1999.90;999.90;;;;;;;;;;5013311;28;20489;-73
2022/05/02 04:39:58;;;;;;;1999.90;999.90;;;;;;;;;;5003175;28;20889;-74
2022/05/02 04:42:25;;;;;;;1999.90;999.90;;;;;;;;;;5006302;28;20907;-74
2022/05/02 04:44:53;;;;;;;1999.90;999.90;;;;;;;;;;5002553;28;20536;-71
2022/05/02 04:47:22;;;;;;;1999.90;999.90;;;;;;;;;;4988451;28;20906;-73
2022/05/02 04:49:57;;;;;;;1999.90;999.90;;;;;;;;;;5004160;28;20436;-74
2022/05/02 04:52:25;;;;;;;1999.90;999.90;;;;;;;;;;5004205;28;20414;-73
2022/05/02 04:54:52;;;;;;;1999.90;999.90;;;;;;;;;;5003230;28;20453;-71
2022/05/02 04:57:20;;;;;;;1999.90;999.90;;;;;;;;;;5004779;28;20532;-71
2022/05/02 04:59:47;;;;;;;1999.90;999.90;;;;;;;;;;5003524;28;20928;-71
2022/05/02 05:02:15;;;;;;;1999.90;999.90;;;;;;;;;;5005620;28;21273;-70
2022/05/02 05:04:44;;;;;;;1999.90;999.90;;;;;;;;;;5011113;28;20440;-72
2022/05/02 05:07:12;;;;;;;1999.90;999.90;;;;;;;;;;5008107;28;21536;-73
2022/05/02 05:09:40;;;;;;;1999.90;999.90;;;;;;;;;;5012061;28;20504;-71
2022/05/02 05:12:12;;;;;;;1999.90;999.90;;;;;;;;;;5008458;28;20402;-73
2022/05/02 05:17:36;;;;;;;1999.90;999.90;;;;;;;;;;5014295;28;20398;-72
2022/05/02 05:20:09;;;;;;;1999.90;999.90;;;;;;;;;;5016643;28;20442;-73
2022/05/02 05:22:44;;;;;;;1999.90;999.90;;;;;;;;;;5017429;28;20987;-71
2022/05/02 05:25:30;;;;;;;1999.90;999.90;;;;;;;;;;5018673;28;20406;-73
2022/05/02 05:28:02;;;;;;;1999.90;999.90;;;;;;;;;;5019288;28;20454;-72
2022/05/02 05:30:36;;;;;;;1999.90;999.90;;;;;;;;;;5018891;28;20481;-73
2022/05/02 05:33:05;;;;;;;1999.90;999.90;;;;;;;;;;5015263;28;20460;-72
2022/05/02 05:35:41;;;;;;;1999.90;999.90;;;;;;;;;;5016581;28;21077;-72
2022/05/02 05:38:11;;;;;;;1999.90;999.90;;;;;;;;;;5017981;28;20420;-73
2022/05/02 05:40:39;;;;;;;1999.90;999.90;;;;;;;;;;5001491;28;20401;-72
2022/05/02 05:43:21;;;;;;;1999.90;999.90;;;;;;;;;;5019048;28;20569;-72
2022/05/02 05:45:59;;;;;;;1999.90;999.90;;;;;;;;;;5016585;28;20394;-74
2022/05/02 05:48:30;;;;;;;1999.90;999.90;;;;;;;;;;5018351;28;20452;-72
2022/05/02 05:51:04;;;;;;;1999.90;999.90;;;;;;;;;;5017755;28;20421;-72
2022/05/02 05:53:39;;;;;;;1999.90;999.90;;;;;;;;;;5019079;28;20418;-73
2022/05/02 05:56:18;;;;;;;1999.90;999.90;;;;;;;;;;5019271;28;20406;-72
2022/05/02 05:58:49;;;;;;;1999.90;999.90;;;;;;;;;;5002381;28;20465;-72
2022/05/02 06:01:24;;;;;;;1999.90;999.90;;;;;;;;;;5018129;28;20917;-71
2022/05/02 06:04:00;;;;;;;1999.90;999.90;;;;;;;;;;5018989;28;20418;-73
2022/05/02 06:06:29;;;;;;;1999.90;999.90;;;;;;;;;;5016853;28;20418;-73
2022/05/02 06:08:57;;;;;;;1999.90;999.90;;;;;;;;;;5019171;28;20517;-72
2022/05/02 06:11:26;;;;;;;1999.90;999.90;;;;;;;;;;5018932;28;20418;-73
2022/05/02 06:13:54;;;;;;;1999.90;999.90;;;;;;;;;;5018027;28;20504;-73
2022/05/02 06:19:11;;;;;;;1999.90;999.90;;;;;;;;;;5016438;28;20481;-72
2022/05/02 06:21:43;;;;;;;1999.90;999.90;;;;;;;;;;5019246;28;20484;-73
2022/05/02 06:24:11;;;;;;;1999.90;999.90;;;;;;;;;;5018445;28;20901;-71
2022/05/02 06:26:43;;;;;;;1999.90;999.90;;;;;;;;;;5018793;28;20441;-72
2022/05/02 06:29:12;;;;;;;1999.90;999.90;;;;;;;;;;5019002;28;20410;-71
2022/05/02 06:31:43;;;;;;;1999.90;999.90;;;;;;;;;;5017048;28;20456;-71
2022/05/02 06:34:11;;;;;;;1999.90;999.90;;;;;;;;;;5016627;28;20399;-74
2022/05/02 06:36:51;;;;;;;1999.90;999.90;;;;;;;;;;5018389;28;20857;-71
2022/05/02 06:39:24;;;;;;;1999.90;999.90;;;;;;;;;;5018360;28;20410;-73
2022/05/02 06:42:01;;;;;;;1999.90;999.90;;;;;;;;;;5033971;28;20488;-72
2022/05/02 06:44:34;;;;;;;1999.90;999.90;;;;;;;;;;5017296;28;20908;-73
2022/05/02 06:47:05;;;;;;;1999.90;999.90;;;;;;;;;;5016511;28;20777;-72
2022/05/02 06:49:34;;;;;;;1999.90;999.90;;;;;;;;;;5018270;28;20410;-70
2022/05/02 06:52:06;;;;;;;1999.90;999.90;;;;;;;;;;5018732;28;20409;-72
2022/05/02 06:54:42;;;;;;;1999.90;999.90;;;;;;;;;;5018834;28;20422;-71
2022/05/02 06:57:14;;;;;;;1999.90;999.90;;;;;;;;;;5017081;28;20409;-72
2022/05/02 06:59:47;;;;;;;1999.90;999.90;;;;;;;;;;5018054;28;20901;-71
2022/05/02 07:02:24;;;;;;;1999.90;999.90;;;;;;;;;;5015324;28;20413;-72
2022/05/02 07:04:53;;;;;;;1999.90;999.90;;;;;;;;;;5016949;28;20488;-72
2022/05/02 07:07:31;;;;;;;1999.90;999.90;;;;;;;;;;5014394;28;20535;-72
2022/05/02 07:10:03;;;;;;;1999.90;999.90;;;;;;;;;;5016635;28;20484;-72
2022/05/02 07:12:32;;;;;;;1999.90;999.90;;;;;;;;;;5033321;28;20402;-71
2022/05/02 07:15:03;;;;;;;1999.90;999.90;;;;;;;;;;5018581;28;20488;-71
2022/05/02 07:17:50;;;;;;;1999.90;999.90;;;;;;;;;;5015697;28;21512;-72
2022/05/02 07:20:19;;;;;;;1999.90;999.90;;;;;;;;;;5017152;28;20420;-72
2022/05/02 07:22:55;;;;;;;1999.90;999.90;;;;;;;;;;5016825;28;20406;-72
2022/05/02 07:25:23;;;;;;;1999.90;999.90;;;;;;;;;;5032604;28;20975;-71
2022/05/02 07:27:54;;;;;;;1999.90;999.90;;;;;;;;;;5016865;28;20530;-72
2022/05/02 07:30:22;;;;;;;1999.90;999.90;;;;;;;;;;5016375;28;20397;-72
2022/05/02 07:32:50;;;;;;;1999.90;999.90;;;;;;;;;;5018649;28;20418;-72
2022/05/02 07:35:19;;;;;;;1999.90;999.90;;;;;;;;;;5016271;28;20425;-72
2022/05/02 07:37:47;;;;;;;1999.90;999.90;;;;;;;;;;4999655;28;20962;-70
2022/05/02 07:40:19;;;;;;;1999.90;999.90;;;;;;;;;;5018027;28;20434;-71
2022/05/02 07:42:47;;;;;;;1999.90;999.90;;;;;;;;;;5029486;28;20419;-72
2022/05/02 07:45:17;;;;;;;1999.90;999.90;;;;;;;;;;5029385;28;20432;-73
2022/05/02 07:47:47;;;;;;;1999.90;999.90;;;;;;;;;;5027554;28;20753;-72
2022/05/02 07:50:16;;;;;;;1999.90;999.90;;;;;;;;;;5025721;28;21243;-72
2022/05/02 07:52:44;;;;;;;1999.90;999.90;;;;;;;;;;5022717;28;21267;-72
2022/05/02 07:55:14;;;;;;;1999.90;999.90;;;;;;;;;;5025331;28;20382;-72
2022/05/02 07:57:43;;;;;;;1999.90;999.90;;;;;;;;;;5020513;28;20398;-72
2022/05/02 08:00:13;;;;;;;1999.90;999.90;;;;;;;;;;5023856;28;20493;-72
2022/05/02 08:02:41;;;;;;;1999.90;999.90;;;;;;;;;;5023414;28;20472;-72
2022/05/02 08:05:09;;;;;;;1999.90;999.90;;;;;;;;;;5018404;28;20429;-71
2022/05/02 08:07:38;;;;;;;1999.90;999.90;;;;;;;;;;5017249;28;20420;-72
2022/05/02 08:10:25;;;;;;;1999.90;999.90;;;;;;;;;;5019018;28;20516;-73
2022/05/02 08:12:55;;;;;;;1999.90;999.90;;;;;;;;;;5020910;28;20498;-73
2022/05/02 08:15:26;;;;;;;1999.90;999.90;;;;;;;;;;5006591;28;20426;-72
2022/05/02 08:18:05;;;;;;;1999.90;999.90;;;;;;;;;;5016230;28;20496;-73
2022/05/02 08:20:36;;;;;;;1999.90;999.90;;;;;;;;;;5018574;28;20406;-72
2022/05/02 08:28:54;;;;;;;1999.90;999.90;;;;;;;;;;5014941;28;20905;-73
2022/05/02 08:31:26;;;;;;;1999.90;999.90;;;;;;;;;;5005512;28;20844;-72
2022/05/02 08:33:57;;;;;;;1999.90;999.90;;;;;;;;;;5032777;28;20497;-72
2022/05/02 08:36:30;;;;;;;1999.90;999.90;;;;;;;;;;5016695;28;20417;-73
2022/05/02 08:39:02;;;;;;;1999.90;999.90;;;;;;;;;;5020331;28;20426;-71
2022/05/02 08:41:48;;;;;;;1999.90;999.90;;;;;;;;;;5019698;28;20398;-73
2022/05/02 08:44:39;;;;;;;1999.90;999.90;;;;;;;;;;5013969;28;20417;-72
2022/05/02 08:47:37;;;;;;;1999.90;999.90;;;;;;;;;;5017286;28;20492;-73
2022/05/02 08:50:28;;;;;;;1999.90;999.90;;;;;;;;;;5018169;28;20433;-74
2022/05/02 08:53:03;;;;;;;1999.90;999.90;;;;;;;;;;5018906;28;20358;-73
2022/05/02 08:55:38;;;;;;;1999.90;999.90;;;;;;;;;;5018381;28;21229;-73
2022/05/02 08:58:21;;;;;;;1999.90;999.90;;;;;;;;;;5019836;28;20415;-73
2022/05/02 09:01:04;;;;;;;1999.90;999.90;;;;;;;;;;5019107;28;20402;-73
2022/05/02 09:03:41;;;;;;;1999.90;999.90;;;;;;;;;;5020150;28;20420;-71
2022/05/02 09:06:26;;;;;;;1999.90;999.90;;;;;;;;;;5019251;28;21986;-73
2022/05/02 09:09:11;;;;;;;1999.90;999.90;;;;;;;;;;5001809;28;20418;-71
2022/05/02 09:11:44;;;;;;;1999.90;999.90;;;;;;;;;;5018213;28;20520;-72
2022/05/02 09:14:27;;;;;;;1999.90;999.90;;;;;;;;;;5001260;28;20398;-72
2022/05/02 09:17:07;;;;;;;1999.90;999.90;;;;;;;;;;5019052;28;20460;-73
2022/05/02 09:19:56;;;;;;;1999.90;999.90;;;;;;;;;;5017971;28;20417;-72
2022/05/02 09:22:39;;;;;;;1999.90;999.90;;;;;;;;;;5019807;28;20449;-73
2022/05/02 09:25:08;;;;;;;1999.90;999.90;;;;;;;;;;5018821;28;20517;-73
2022/05/02 09:27:37;;;;;;;1999.90;999.90;;;;;;;;;;5019943;28;20921;-73
2022/05/02 09:30:23;;;;;;;1999.90;999.90;;;;;;;;;;5034333;28;20422;-72
2022/05/02 09:33:04;;;;;;;1999.90;999.90;;;;;;;;;;5005291;28;20452;-72
2022/05/02 09:35:33;;;;;;;1999.90;999.90;;;;;;;;;;5016845;28;20410;-73
2022/05/02 09:38:08;;;;;;;1999.90;999.90;;;;;;;;;;5019411;28;20407;-73
2022/05/02 09:40:36;;;;;;;1999.90;999.90;;;;;;;;;;5017928;28;20507;-72
2022/05/02 09:43:10;;;;;;;1999.90;999.90;;;;;;;;;;5020450;28;20433;-72
2022/05/02 09:51:48;;;;;;;1999.90;999.90;;;;;;;;;;5019041;28;20406;-72
2022/05/02 09:57:14;;;;;;;1999.90;999.90;;;;;;;;;;5019508;28;21189;-72
2022/05/02 09:59:44;;;;;;;1999.90;999.90;;;;;;;;;;5019555;28;20511;-72
2022/05/02 10:02:19;;;;;;;1999.90;999.90;;;;;;;;;;5018012;28;20424;-71
2022/05/02 10:05:03;;;;;;;1999.90;999.90;;;;;;;;;;5017343;28;20398;-73
2022/05/02 10:07:34;;;;;;;1999.90;999.90;;;;;;;;;;5017582;28;20402;-72
2022/05/02 10:10:03;;;;;;;1999.90;999.90;;;;;;;;;;5018042;28;20422;-73
2022/05/02 10:12:40;;;;;;;1999.90;999.90;;;;;;;;;;5016576;28;20445;-72
2022/05/02 10:15:25;;;;;;;1999.90;999.90;;;;;;;;;;5000298;28;20394;-73
2022/05/02 10:18:02;;;;;;;1999.90;999.90;;;;;;;;;;5018281;28;20528;-73
2022/05/02 10:20:37;;;;;;;1999.90;999.90;;;;;;;;;;5017903;28;20386;-72
2022/05/02 10:23:15;;;;;;;1999.90;999.90;;;;;;;;;;5018417;28;20426;-72
2022/05/02 10:25:50;;;;;;;1999.90;999.90;;;;;;;;;;5019172;28;20399;-73
2022/05/02 10:28:29;;;;;;;1999.90;999.90;;;;;;;;;;5019110;28;20398;-73
2022/05/02 10:31:03;;;;;;;1999.90;999.90;;;;;;;;;;5019821;28;20653;-72
2022/05/02 10:33:32;;;;;;;1999.90;999.90;;;;;;;;;;5016705;28;20417;-72
2022/05/02 10:36:03;;;;;;;1999.90;999.90;;;;;;;;;;5017365;28;20402;-72
2022/05/02 10:38:31;;;;;;;1999.90;999.90;;;;;;;;;;5017384;28;20493;-71
2022/05/02 10:41:03;;;;;;;1999.90;999.90;;;;;;;;;;5018450;28;20418;-75
2022/05/02 10:43:31;;;;;;;1999.90;999.90;;;;;;;;;;5019403;28;20410;-71
2022/05/02 10:46:00;;;;;;;1999.90;999.90;;;;;;;;;;5017677;28;20390;-70
2022/05/02 10:48:34;;;;;;;1999.90;999.90;;;;;;;;;;5019614;28;20438;-71
2022/05/02 10:51:11;;;;;;;1999.90;999.90;;;;;;;;;;5018799;28;20468;-71
2022/05/02 10:53:50;;;;;;;1999.90;999.90;;;;;;;;;;5018701;28;20454;-72
2022/05/02 10:56:23;;;;;;;1999.90;999.90;;;;;;;;;;5015355;28;20434;-72
2022/05/02 10:58:53;;;;;;;1999.90;999.90;;;;;;;;;;5018299;28;20446;-72
2022/05/02 11:01:32;;;;;;;1999.90;999.90;;;;;;;;;;5017749;28;20465;-71
2022/05/02 11:04:03;;;;;;;1999.90;999.90;;;;;;;;;;5018936;28;20398;-72
2022/05/02 11:06:36;;;;;;;1999.90;999.90;;;;;;;;;;5018593;28;20749;-73
2022/05/02 11:09:06;;;;;;;1999.90;999.90;;;;;;;;;;5016700;28;20438;-73
2022/05/02 11:11:45;;;;;;;1999.90;999.90;;;;;;;;;;5033208;28;20390;-72
2022/05/02 11:14:18;;;;;;;1999.90;999.90;;;;;;;;;;5016548;28;20420;-72
2022/05/02 11:16:49;;;;;;;1999.90;999.90;;;;;;;;;;5016167;28;21390;-72
2022/05/02 11:22:15;;;;;;;1999.90;999.90;;;;;;;;;;5016461;28;20963;-72
2022/05/02 11:24:43;;;;;;;1999.90;999.90;;;;;;;;;;5014706;28;20436;-73
2022/05/02 11:27:21;;;;;;;1999.90;999.90;;;;;;;;;;5016783;28;20433;-71
2022/05/02 11:29:55;;;;;;;1999.90;999.90;;;;;;;;;;4999638;28;21244;-72
2022/05/02 11:32:27;;;;;;;1999.90;999.90;;;;;;;;;;5017496;28;20468;-72
2022/05/02 11:35:01;;;;;;;1999.90;999.90;;;;;;;;;;5015822;28;20472;-71
2022/05/02 11:37:34;;;;;;;1999.90;999.90;;;;;;;;;;5017177;28;20397;-72
2022/05/02 11:40:06;;;;;;;1999.90;999.90;;;;;;;;;;4987781;28;20398;-72
2022/05/02 11:42:34;;;;;;;1999.90;999.90;;;;;;;;;;5017916;28;20472;-73
2022/05/02 11:45:09;;;;;;;1999.90;999.90;;;;;;;;;;5018188;28;20430;-72
2022/05/02 11:47:58;;;;;;;1999.90;999.90;;;;;;;;;;5016019;28;20460;-72
2022/05/02 11:50:26;;;;;;;1999.90;999.90;;;;;;;;;;5010484;28;20418;-73
2022/05/02 11:52:56;;;;;;;1999.90;999.90;;;;;;;;;;5015875;28;20414;-72
2022/05/02 11:55:27;;;;;;;1999.90;999.90;;;;;;;;;;5014333;28;20430;-73
2022/05/02 11:57:58;;;;;;;1999.90;999.90;;;;;;;;;;5015998;28;20441;-73
2022/05/02 12:00:31;;;;;;;1999.90;999.90;;;;;;;;;;5001332;28;20472;-72
2022/05/02 12:03:03;;;;;;;1999.90;999.90;;;;;;;;;;5016680;28;20420;-72
2022/05/02 12:05:32;;;;;;;1999.90;999.90;;;;;;;;;;5034165;28;20237;-70
2022/05/02 12:08:02;;;;;;;1999.90;999.90;;;;;;;;;;5016237;28;20237;-73
2022/05/02 12:10:35;;;;;;;1999.90;999.90;;;;;;;;;;5016871;28;20426;-73
2022/05/02 12:13:03;;;;;;;1999.90;999.90;;;;;;;;;;5017712;28;20465;-73
2022/05/02 12:15:31;;;;;;;1999.90;999.90;;;;;;;;;;5016654;28;20418;-71
2022/05/02 12:18:03;;;;;;;1999.90;999.90;;;;;;;;;;5017713;28;21231;-72
2022/05/02 12:20:31;;;;;;;1999.90;999.90;;;;;;;;;;5017526;28;20490;-72
2022/05/02 12:23:02;;;;;;;1999.90;999.90;;;;;;;;;;5017080;28;21065;-71
2022/05/02 12:25:32;;;;;;;1999.90;999.90;;;;;;;;;;5015664;28;20536;-70
2022/05/02 12:28:03;;;;;;;1999.90;999.90;;;;;;;;;;5015338;28;20429;-74
2022/05/02 12:30:31;;;;;;;1999.90;999.90;;;;;;;;;;5015968;28;20617;-71
2022/05/02 12:33:00;;;;;;;1999.90;999.90;;;;;;;;;;5018307;28;20402;-73
2022/05/02 12:35:37;;;;;;;1999.90;999.90;;;;;;;;;;5015833;28;20417;-73
2022/05/02 12:38:14;;;;;;;1999.90;999.90;;;;;;;;;;5017139;28;20401;-73
2022/05/02 12:40:42;;;;;;;1999.90;999.90;;;;;;;;;;5014376;28;20410;-73
2022/05/02 12:43:11;;;;;;;1999.90;999.90;;;;;;;;;;5016159;28;20390;-70
2022/05/02 12:45:44;;;;;;;1999.90;999.90;;;;;;;;;;5016595;28;20895;-73
2022/05/02 12:48:18;;;;;;;1999.90;999.90;;;;;;;;;;4998727;28;20456;-72
2022/05/02 12:50:46;;;;;;;1999.90;999.90;;;;;;;;;;5015448;28;20484;-73
2022/05/02 12:54:09;;;;;;;1999.90;999.90;;;;;;;;;;5017084;28;20225;-73
2022/05/02 12:56:08;;;;;;;1999.90;999.90;;;;;;;;;;5005706;28;20304;-72
2022/05/02 13:01:23;;;;;;;1999.90;999.90;;;;;;;;;;4987806;28;20279;-73
2022/05/02 13:03:54;;;;;;;1999.90;999.90;;;;;;;;;;5017924;28;20241;-72
2022/05/02 13:06:22;;;;;;;1999.90;999.90;;;;;;;;;;5016228;28;20229;-73
2022/05/02 13:08:52;;;;;;;1999.90;999.90;;;;;;;;;;5018364;28;20237;-72
2022/05/02 13:11:23;;;;;;;1999.90;999.90;;;;;;;;;;5018623;28;20299;-73
2022/05/02 13:13:52;;;;;;;1999.90;999.90;;;;;;;;;;5016202;28;20418;-72
2022/05/02 13:16:25;;;;;;;1999.90;999.90;;;;;;;;;;5016438;28;20731;-73
2022/05/02 13:18:54;;;;;;;1999.90;999.90;;;;;;;;;;5015756;28;21095;-73
2022/05/02 13:21:21;;;;;;;1999.90;999.90;;;;;;;;;;5017601;28;21447;-72
2022/05/02 13:23:50;;;;;;;1999.90;999.90;;;;;;;;;;5001269;28;20997;-73
2022/05/02 13:26:32;;;;;;;1999.90;999.90;;;;;;;;;;5019877;28;20667;-72
2022/05/02 13:29:03;;;;;;;1999.90;999.90;;;;;;;;;;5018382;28;20537;-73
2022/05/02 13:31:38;;;;;;;1999.90;999.90;;;;;;;;;;5020912;28;20327;-73
2022/05/02 13:34:06;;;;;;;1999.90;999.90;;;;;;;;;;5020575;28;20287;-73
2022/05/02 13:36:41;;;;;;;1999.90;999.90;;;;;;;;;;5020781;28;20322;-73
2022/05/02 13:39:11;;;;;;;1999.90;999.90;;;;;;;;;;5018482;28;20445;-73
2022/05/02 13:41:48;;;;;;;1999.90;999.90;;;;;;;;;;5021395;28;20221;-72
2022/05/02 13:44:21;;;;;;;1999.90;999.90;;;;;;;;;;5021387;28;20291;-71
2022/05/02 13:46:53;;;;;;;1999.90;999.90;;;;;;;;;;5019726;28;20233;-73
2022/05/02 13:49:31;;;;;;;1999.90;999.90;;;;;;;;;;5020737;28;20229;-73
2022/05/02 13:52:04;;;;;;;1999.90;999.90;;;;;;;;;;5021396;28;20273;-73
2022/05/02 13:54:35;;;;;;;1999.90;999.90;;;;;;;;;;5016814;28;20811;-72
2022/05/02 13:57:09;;;;;;;1999.90;999.90;;;;;;;;;;5020350;28;20854;-72
2022/05/02 13:59:40;;;;;;;1999.90;999.90;;;;;;;;;;5020232;28;20307;-72
2022/05/02 14:02:11;;;;;;;1999.90;999.90;;;;;;;;;;5020736;28;21125;-73
2022/05/02 14:04:41;;;;;;;1999.90;999.90;;;;;;;;;;5020466;28;20241;-72
2022/05/02 14:07:13;;;;;;;1999.90;999.90;;;;;;;;;;5002954;28;20236;-72
2022/05/02 14:09:48;;;;;;;1999.90;999.90;;;;;;;;;;5019022;28;20323;-71
2022/05/02 14:12:36;;;;;;;1999.90;999.90;;;;;;;;;;5020787;28;20256;-73
2022/05/02 14:15:06;;;;;;;1999.90;999.90;;;;;;;;;;5017981;28;20280;-72
2022/05/02 14:17:37;;;;;;;1999.90;999.90;;;;;;;;;;5020526;28;20588;-72
2022/05/02 14:20:14;;;;;;;1999.90;999.90;;;;;;;;;;5018494;28;20760;-73
2022/05/02 14:22:42;;;;;;;1999.90;999.90;;;;;;;;;;5018559;28;20240;-72
2022/05/02 14:25:14;;;;;;;1999.90;999.90;;;;;;;;;;5019854;28;20285;-72
2022/05/02 14:27:58;;;;;;;1999.90;999.90;;;;;;;;;;5019755;28;20414;-72
2022/05/02 14:30:26;;;;;;;1999.90;999.90;;;;;;;;;;5017860;28;20446;-73
2022/05/02 14:32:54;;;;;;;1999.90;999.90;;;;;;;;;;5019319;28;21498;-72